Time;durP1;ratioP1;P1;durP2;ratioP2;P2;SDS_P1;SDS_P2;PMS_P1;PMS_P2;Temp;Humidity;BMP_temperature;BMP_pressure;BME280_temperature;BME280_humidity;BME280_pressure;Samples;Min_cycle;Max_cycle;Signal;HPM_P1;HPM_P2
2023/05/27 00:00:08;;;;;;;11.75;6.18;;;487.00;2380.80;;;;;;5104163;28;20070;-74
2023/05/27 00:02:34;;;;;;;11.00;5.80;;;487.00;2380.80;;;;;;5101837;28;20123;-74
2023/05/27 00:05:00;;;;;;;12.07;6.78;;;486.90;2380.80;;;;;;5105242;28;20543;-74
2023/05/27 00:07:27;;;;;;;10.68;6.18;;;486.90;2380.80;;;;;;5105363;28;20119;-75
2023/05/27 00:09:54;;;;;;;12.07;6.45;;;486.90;2380.80;;;;;;5102915;28;20103;-74
2023/05/27 00:12:20;;;;;;;9.63;6.68;;;486.80;2380.80;;;;;;5103523;28;20028;-74
2023/05/27 00:14:46;;;;;;;13.13;7.50;;;486.80;2380.80;;;;;;5103421;28;20427;-76
2023/05/27 00:17:14;;;;;;;17.50;8.18;;;486.80;2380.80;;;;;;5106116;28;20066;-74
2023/05/27 00:19:40;;;;;;;12.40;6.63;;;486.70;2380.80;;;;;;5106367;28;20097;-74
2023/05/27 00:22:06;;;;;;;16.27;6.70;;;486.70;2380.80;;;;;;5100286;28;20062;-74
2023/05/27 00:24:37;;;;;;;12.77;7.15;;;486.80;2380.80;;;;;;5103728;28;20056;-74
2023/05/27 00:27:03;;;;;;;13.77;6.25;;;486.80;2380.80;;;;;;5106864;28;20012;-74
2023/05/27 00:29:28;;;;;;;12.85;6.70;;;486.80;2380.80;;;;;;5103729;28;20020;-75
2023/05/27 00:31:54;;;;;;;13.27;6.97;;;486.80;2380.80;;;;;;5103251;28;20068;-74
2023/05/27 00:34:20;;;;;;;15.00;7.70;;;486.80;2380.80;;;;;;5099489;28;20067;-74
2023/05/27 00:36:45;;;;;;;11.40;6.80;;;486.80;2380.80;;;;;;5102858;28;20039;-74
2023/05/27 00:39:11;;;;;;;13.65;7.22;;;486.70;2380.80;;;;;;5099096;28;20538;-73
2023/05/27 00:41:38;;;;;;;12.77;6.82;;;486.70;2380.80;;;;;;5101165;28;20032;-74
2023/05/27 00:44:03;;;;;;;14.38;7.40;;;486.70;2380.80;;;;;;5099564;28;20026;-74
2023/05/27 00:46:29;;;;;;;9.70;6.53;;;486.70;2380.80;;;;;;5102015;28;20032;-74
2023/05/27 00:48:55;;;;;;;14.43;7.32;;;486.70;2380.80;;;;;;5095362;28;20020;-77
2023/05/27 00:51:21;;;;;;;16.63;6.75;;;486.60;2380.80;;;;;;5095477;28;20035;-74
2023/05/27 00:53:47;;;;;;;18.63;7.50;;;486.60;2380.80;;;;;;5095371;28;20020;-74
2023/05/27 00:56:15;;;;;;;19.23;7.43;;;486.60;2380.80;;;;;;5095425;28;20024;-74
2023/05/27 00:58:42;;;;;;;13.18;7.25;;;486.40;2380.80;;;;;;5094510;28;20024;-74
2023/05/27 01:01:07;;;;;;;14.25;7.45;;;461.70;2380.80;;;;;;5095166;28;20040;-78
2023/05/27 01:03:34;;;;;;;14.93;7.00;;;486.40;2380.80;;;;;;5095181;28;20567;-74
2023/05/27 01:06:41;;;;;;;18.20;7.07;;;486.40;2380.80;;;;;;5095108;28;20024;-75
2023/05/27 01:09:16;;;;;;;17.27;7.20;;;486.40;2380.80;;;;;;5032861;28;20033;-74
2023/05/27 01:12:02;;;;;;;16.83;8.15;;;461.70;2380.80;;;;;;5032820;28;20480;-77
2023/05/27 01:14:31;;;;;;;12.77;7.85;;;486.40;2380.80;;;;;;5032667;28;20139;-75
2023/05/27 01:17:00;;;;;;;20.20;7.85;;;486.40;2380.80;;;;;;5032446;28;20091;-75
2023/05/27 01:19:42;;;;;;;16.08;7.88;;;486.40;2380.80;;;;;;5032522;28;20116;-75
2023/05/27 01:22:11;;;;;;;15.10;8.25;;;486.40;2380.80;;;;;;5032673;28;20026;-75
2023/05/27 01:24:37;;;;;;;20.77;9.50;;;486.40;2380.80;;;;;;5032591;28;20064;-75
2023/05/27 01:27:03;;;;;;;12.90;8.27;;;486.50;2380.80;;;;;;5043185;28;20127;-74
2023/05/27 01:29:30;;;;;;;12.30;8.40;;;486.50;2380.80;;;;;;5051861;28;20020;-75
2023/05/27 01:32:16;;;;;;;10.13;7.50;;;486.50;2380.80;;;;;;5051796;28;20041;-75
2023/05/27 01:35:13;;;;;;;14.77;8.75;;;486.50;2380.80;;;;;;5051947;28;20399;-75
2023/05/27 01:37:42;;;;;;;16.13;9.05;;;486.60;2380.80;;;;;;5050894;28;20033;-75
2023/05/27 01:40:08;;;;;;;13.52;8.35;;;486.60;2380.80;;;;;;5052314;28;20037;-77
2023/05/27 01:42:40;;;;;;;15.57;8.68;;;486.50;2380.80;;;;;;5051953;28;20486;-74
2023/05/27 01:45:08;;;;;;;13.65;8.52;;;486.50;2380.80;;;;;;5060681;28;20066;-74
2023/05/27 01:47:34;;;;;;;16.38;9.02;;;486.50;2380.80;;;;;;5093324;28;20031;-78
2023/05/27 01:50:00;;;;;;;13.85;9.02;;;486.50;2380.80;;;;;;5094186;28;20024;-75
2023/05/27 01:52:26;;;;;;;13.45;8.63;;;486.50;2380.80;;;;;;5093793;28;20125;-77
2023/05/27 01:54:52;;;;;;;13.75;8.95;;;486.60;2380.80;;;;;;5094030;28;20489;-75
2023/05/27 01:57:18;;;;;;;14.27;9.00;;;486.60;2380.80;;;;;;5093841;28;20028;-75
2023/05/27 01:59:44;;;;;;;14.63;9.02;;;486.50;2380.80;;;;;;5093973;28;20039;-74
2023/05/27 02:02:10;;;;;;;16.83;9.40;;;486.60;2380.80;;;;;;5093762;28;20054;-75
2023/05/27 02:04:36;;;;;;;13.25;8.95;;;486.50;2380.80;;;;;;5093441;28;20107;-75
2023/05/27 02:07:01;;;;;;;15.32;9.07;;;486.50;2380.80;;;;;;5093940;28;20020;-74
2023/05/27 02:09:27;;;;;;;15.98;8.10;;;486.60;2380.80;;;;;;5093479;28;20020;-75
2023/05/27 02:11:53;;;;;;;16.33;9.68;;;486.60;2380.80;;;;;;5093813;28;20118;-75
2023/05/27 02:14:18;;;;;;;15.60;8.70;;;486.60;2380.80;;;;;;5093479;28;20477;-74
2023/05/27 02:16:44;;;;;;;16.40;10.52;;;486.70;2380.80;;;;;;5075331;28;20055;-74
2023/05/27 02:19:10;;;;;;;15.55;9.82;;;486.60;2380.80;;;;;;5092838;28;20070;-75
2023/05/27 02:21:36;;;;;;;12.35;8.23;;;486.60;2380.80;;;;;;5093491;28;20024;-76
2023/05/27 02:24:05;;;;;;;10.50;8.32;;;486.60;2380.80;;;;;;5074772;28;20470;-75
2023/05/27 02:26:30;;;;;;;15.02;9.07;;;486.50;2380.80;;;;;;5093514;28;20043;-74
2023/05/27 02:28:56;;;;;;;14.07;7.82;;;486.50;2380.80;;;;;;5093507;28;20478;-74
2023/05/27 02:31:22;;;;;;;17.15;8.95;;;486.40;2380.80;;;;;;5075379;28;20039;-75
2023/05/27 02:33:48;;;;;;;14.82;8.75;;;461.70;2380.80;;;;;;5074953;28;20370;-74
2023/05/27 02:36:13;;;;;;;12.68;8.45;;;461.70;2380.80;;;;;;5093527;28;20051;-75
2023/05/27 02:38:39;;;;;;;16.25;9.05;;;461.70;2380.80;;;;;;5092976;28;20013;-75
2023/05/27 02:41:05;;;;;;;19.35;8.77;;;461.60;2380.80;;;;;;5093322;28;20032;-74
2023/05/27 02:43:31;;;;;;;19.30;9.52;;;461.60;2380.80;;;;;;5092909;28;20087;-75
2023/05/27 02:45:56;;;;;;;13.60;8.70;;;461.60;2380.80;;;;;;5093410;28;20548;-74
2023/05/27 02:48:22;;;;;;;17.45;8.85;;;461.60;2380.80;;;;;;5074827;28;20031;-78
2023/05/27 02:50:48;;;;;;;20.77;9.07;;;461.50;2380.80;;;;;;5093152;28;20059;-75
2023/05/27 02:53:14;;;;;;;18.17;8.70;;;461.60;2380.80;;;;;;5079439;28;20104;-76
2023/05/27 02:55:41;;;;;;;14.65;8.68;;;461.60;2380.80;;;;;;5093096;28;20382;-78
2023/05/27 02:58:07;;;;;;;17.88;8.85;;;461.50;2380.80;;;;;;5092932;28;20390;-74
2023/05/27 03:00:33;;;;;;;18.05;9.80;;;461.50;2380.80;;;;;;5092998;28;20024;-74
2023/05/27 03:02:59;;;;;;;19.15;8.65;;;461.50;2380.80;;;;;;5092619;28;20462;-74
2023/05/27 03:05:25;;;;;;;17.70;9.75;;;461.50;2380.80;;;;;;5092975;28;20032;-77
2023/05/27 03:07:51;;;;;;;17.45;9.93;;;461.50;2380.80;;;;;;5093087;28;20017;-75
2023/05/27 03:10:17;;;;;;;17.75;9.20;;;461.40;2380.80;;;;;;5093130;28;20036;-75
2023/05/27 03:12:42;;;;;;;15.00;8.85;;;461.50;2380.80;;;;;;5092642;28;20024;-74
2023/05/27 03:15:08;;;;;;;13.70;8.30;;;461.50;2380.80;;;;;;5092949;28;20108;-77
2023/05/27 03:17:37;;;;;;;15.85;8.45;;;461.50;2380.80;;;;;;5092558;28;20500;-74
2023/05/27 03:20:03;;;;;;;15.38;9.50;;;461.50;2380.80;;;;;;5093066;28;20020;-77
2023/05/27 03:22:29;;;;;;;20.17;8.80;;;461.60;2380.80;;;;;;5093998;28;20024;-75
2023/05/27 03:24:55;;;;;;;17.73;9.00;;;461.70;2380.80;;;;;;5096842;28;20032;-73
2023/05/27 03:27:21;;;;;;;17.42;8.73;;;486.40;2380.80;;;;;;5096684;28;20019;-73
2023/05/27 03:29:47;;;;;;;19.23;8.48;;;486.40;2380.80;;;;;;5097025;28;20066;-74
2023/05/27 03:32:13;;;;;;;13.80;8.88;;;486.40;2380.80;;;;;;5096606;28;20486;-78
2023/05/27 03:34:38;;;;;;;16.23;8.60;;;461.60;2380.80;;;;;;5096033;28;20040;-77
2023/05/27 03:37:04;;;;;;;14.68;8.70;;;461.60;2380.80;;;;;;5096099;28;20024;-73
2023/05/27 03:39:30;;;;;;;14.18;8.60;;;461.60;2380.80;;;;;;5096568;28;20403;-78
2023/05/27 03:41:56;;;;;;;16.83;8.02;;;461.70;2380.80;;;;;;5096195;28;20103;-74
2023/05/27 03:44:22;;;;;;;17.42;7.97;;;461.70;2380.80;;;;;;5096311;28;20424;-75
2023/05/27 03:46:47;;;;;;;16.73;9.07;;;486.40;2380.80;;;;;;5096315;28;20020;-74
2023/05/27 03:49:13;;;;;;;18.67;9.05;;;461.70;2380.80;;;;;;5096331;28;20024;-77
2023/05/27 03:51:39;;;;;;;12.80;8.65;;;461.70;2380.80;;;;;;5096346;28;20032;-74
2023/05/27 03:54:04;;;;;;;18.50;8.88;;;486.40;2380.80;;;;;;5096595;28;20039;-77
2023/05/27 03:56:30;;;;;;;26.08;8.88;;;486.40;2380.80;;;;;;5096277;28;20021;-73
2023/05/27 03:58:56;;;;;;;23.00;9.63;;;486.40;2380.80;;;;;;5096508;28;20412;-77
2023/05/27 04:01:22;;;;;;;15.10;8.50;;;486.40;2380.80;;;;;;5095772;28;20013;-75
2023/05/27 04:03:48;;;;;;;12.82;8.07;;;461.70;2380.80;;;;;;5096124;28;20381;-74
2023/05/27 04:06:15;;;;;;;16.60;10.05;;;486.40;2380.80;;;;;;5095382;28;20016;-73
2023/05/27 04:08:41;;;;;;;21.45;9.75;;;486.40;2380.80;;;;;;5077795;28;20024;-74
2023/05/27 04:11:10;;;;;;;15.35;9.75;;;486.50;2380.80;;;;;;5095691;28;20416;-73
2023/05/27 04:13:36;;;;;;;14.93;9.75;;;486.50;2380.80;;;;;;5095635;28;20046;-75
2023/05/27 04:16:02;;;;;;;16.02;9.60;;;486.40;2380.80;;;;;;5091342;28;20537;-74
2023/05/27 04:18:27;;;;;;;20.15;9.82;;;486.40;2380.80;;;;;;5087203;28;20450;-76
2023/05/27 04:20:53;;;;;;;22.90;9.52;;;486.40;2380.80;;;;;;5095804;28;20028;-74
2023/05/27 04:23:19;;;;;;;15.23;8.68;;;486.40;2380.80;;;;;;5095898;28;20031;-74
2023/05/27 04:25:45;;;;;;;20.52;11.23;;;486.50;2380.80;;;;;;5095344;28;20462;-77
2023/05/27 04:28:11;;;;;;;15.40;9.10;;;486.40;2380.80;;;;;;5095808;28;20024;-74
2023/05/27 04:30:39;;;;;;;19.55;11.27;;;486.40;2380.80;;;;;;5095558;28;20028;-77
2023/05/27 04:33:07;;;;;;;19.83;9.65;;;486.50;2380.80;;;;;;5094953;28;20028;-74
2023/05/27 04:35:33;;;;;;;24.02;10.73;;;486.50;2380.80;;;;;;5094652;28;20067;-73
2023/05/27 04:38:00;;;;;;;18.23;10.50;;;486.50;2380.80;;;;;;5095417;28;20020;-74
2023/05/27 04:40:28;;;;;;;23.45;10.85;;;486.50;2380.80;;;;;;5095123;28;20111;-74
2023/05/27 04:42:55;;;;;;;23.90;10.73;;;486.60;2380.80;;;;;;5095228;28;20450;-71
2023/05/27 04:45:21;;;;;;;19.15;10.18;;;486.70;2380.80;;;;;;5095382;28;20051;-74
2023/05/27 04:47:47;;;;;;;18.33;11.40;;;486.70;2380.80;;;;;;5095282;28;20541;-74
2023/05/27 04:50:13;;;;;;;20.13;9.82;;;486.70;2380.80;;;;;;5095100;28;20470;-72
2023/05/27 04:52:41;;;;;;;20.10;11.68;;;486.70;2380.80;;;;;;5095009;28;20036;-72
2023/05/27 04:55:08;;;;;;;21.92;11.52;;;486.80;2380.80;;;;;;5095353;28;20089;-71
2023/05/27 04:57:35;;;;;;;15.82;9.05;;;486.80;2380.80;;;;;;5095011;28;20458;-71
2023/05/27 05:02:34;;;;;;;19.23;10.75;;;487.30;2380.80;;;;;;5095326;28;20039;-73
2023/05/27 05:05:04;;;;;;;24.00;12.02;;;487.10;2380.80;;;;;;5076462;28;20032;-71
2023/05/27 05:07:30;;;;;;;17.65;11.70;;;487.00;2380.80;;;;;;5100301;28;20024;-70
2023/05/27 05:09:56;;;;;;;26.05;15.07;;;487.00;2380.80;;;;;;5096660;28;20043;-71
2023/05/27 05:12:23;;;;;;;27.15;15.20;;;486.90;2380.80;;;;;;5100647;28;20044;-71
2023/05/27 05:14:49;;;;;;;23.90;15.70;;;486.90;2380.80;;;;;;5077025;28;20432;-72
2023/05/27 05:17:15;;;;;;;21.42;14.85;;;486.80;2380.80;;;;;;5096517;28;20032;-72
2023/05/27 05:19:40;;;;;;;24.70;17.02;;;486.80;2380.80;;;;;;5082416;28;20478;-71
2023/05/27 05:22:06;;;;;;;25.63;15.25;;;486.80;2380.80;;;;;;5102903;28;20504;-72
2023/05/27 05:24:32;;;;;;;22.30;16.08;;;486.90;2380.80;;;;;;5100957;28;20023;-70
2023/05/27 05:26:57;;;;;;;24.45;13.88;;;487.00;2380.80;;;;;;5105723;28;20028;-70
2023/05/27 05:29:23;;;;;;;26.35;14.77;;;487.00;2380.80;;;;;;5104234;28;20416;-71
2023/05/27 05:31:49;;;;;;;19.67;14.30;;;487.10;2380.80;;;;;;5098247;28;20042;-70
2023/05/27 05:34:15;;;;;;;25.30;15.20;;;487.10;2380.80;;;;;;5096414;28;20032;-70
2023/05/27 05:36:41;;;;;;;24.05;14.50;;;487.10;2380.80;;;;;;5102489;28;20031;-70
2023/05/27 05:39:07;;;;;;;25.73;15.15;;;487.10;2380.80;;;;;;5085283;28;20023;-71
2023/05/27 05:41:33;;;;;;;24.23;15.63;;;487.10;2380.80;;;;;;5099879;28;20477;-70
2023/05/27 05:43:59;;;;;;;24.02;14.75;;;487.30;2380.80;;;;;;5100391;28;20089;-70
2023/05/27 05:46:24;;;;;;;23.88;15.30;;;487.30;2380.80;;;;;;5098075;28;20153;-71
2023/05/27 05:48:53;;;;;;;22.13;14.80;;;512.00;2380.80;;;;;;5100045;28;20029;-71
2023/05/27 05:51:19;;;;;;;20.40;13.90;;;512.00;2380.80;;;;;;5096944;28;20366;-71
2023/05/27 05:53:45;;;;;;;21.02;14.93;;;512.20;2380.80;;;;;;5096354;28;20044;-71
2023/05/27 05:56:10;;;;;;;21.05;14.48;;;512.30;2380.80;;;;;;5099148;28;20105;-73
2023/05/27 05:58:36;;;;;;;22.77;14.90;;;512.30;2380.80;;;;;;5095131;28;20032;-73
2023/05/27 06:01:02;;;;;;;27.35;15.70;;;512.30;2380.80;;;;;;5096512;28;20102;-75
2023/05/27 06:03:28;;;;;;;21.23;15.18;;;512.50;2380.80;;;;;;5104314;28;20019;-72
2023/05/27 06:05:54;;;;;;;22.05;15.00;;;512.60;2380.80;;;;;;5102178;28;20412;-73
2023/05/27 06:08:19;;;;;;;18.20;13.98;;;512.70;2380.80;;;;;;5102706;28;20452;-72
2023/05/27 06:10:45;;;;;;;27.17;14.85;;;512.80;2380.80;;;;;;5098973;28;20021;-72
2023/05/27 06:13:11;;;;;;;20.90;14.20;;;537.60;2406.40;;;;;;5081577;28;20052;-71
2023/05/27 06:15:37;;;;;;;24.95;14.63;;;537.70;2406.40;;;;;;5099684;28;20063;-72
2023/05/27 06:18:04;;;;;;;20.33;14.48;;;537.70;2406.40;;;;;;5094771;28;20019;-72
2023/05/27 06:20:30;;;;;;;26.63;16.73;;;537.80;2406.40;;;;;;5097506;28;20028;-72
2023/05/27 06:22:55;;;;;;;19.75;15.02;;;537.90;2406.40;;;;;;5100548;28;20024;-72
2023/05/27 06:25:21;;;;;;;23.45;16.17;;;537.90;2406.40;;;;;;5104194;28;20020;-74
2023/05/27 06:27:47;;;;;;;21.95;16.00;;;538.00;2406.40;;;;;;5096263;28;20031;-72
2023/05/27 06:30:13;;;;;;;21.15;15.88;;;538.10;2406.40;;;;;;5098362;28;20073;-73
2023/05/27 06:32:38;;;;;;;22.77;15.57;;;538.10;2406.40;;;;;;5096908;28;20089;-71
2023/05/27 06:35:04;;;;;;;21.67;15.90;;;538.10;2406.40;;;;;;5101209;28;20053;-72
2023/05/27 06:37:30;;;;;;;25.92;15.07;;;538.20;2406.40;;;;;;5095666;28;20082;-72
2023/05/27 06:39:56;;;;;;;24.65;15.60;;;538.20;2406.40;;;;;;5098953;28;20414;-72
2023/05/27 06:42:22;;;;;;;25.58;16.02;;;538.30;2406.40;;;;;;5098194;28;20389;-71
2023/05/27 06:44:48;;;;;;;19.27;14.93;;;538.50;2406.40;;;;;;5095812;28;20024;-71
2023/05/27 06:47:14;;;;;;;23.75;15.57;;;563.20;2432.00;;;;;;5097340;28;20127;-71
2023/05/27 06:49:40;;;;;;;24.27;15.88;;;563.20;2432.00;;;;;;5098033;28;20485;-71
2023/05/27 06:52:06;;;;;;;24.38;16.48;;;563.40;2432.00;;;;;;5097084;28;20070;-71
2023/05/27 06:54:32;;;;;;;21.05;15.35;;;563.60;2432.00;;;;;;5102038;28;20032;-70
2023/05/27 06:56:58;;;;;;;21.35;14.60;;;563.70;2432.00;;;;;;5098915;28;20024;-71
2023/05/27 06:59:23;;;;;;;21.55;14.63;;;563.80;2432.00;;;;;;5095229;28;20029;-71
2023/05/27 07:01:49;;;;;;;22.23;15.40;;;564.00;2432.00;;;;;;5095264;28;20107;-73
2023/05/27 07:04:16;;;;;;;19.77;14.45;;;563.90;2432.00;;;;;;5093240;28;20020;-71
2023/05/27 07:06:42;;;;;;;23.83;15.98;;;563.70;2432.00;;;;;;5097691;28;20076;-73
2023/05/27 07:09:08;;;;;;;23.00;15.23;;;563.80;2432.00;;;;;;5094709;28;20102;-70
2023/05/27 07:11:34;;;;;;;24.25;16.38;;;564.00;2432.00;;;;;;5081661;28;20115;-71
2023/05/27 07:14:00;;;;;;;27.08;15.07;;;564.10;2432.00;;;;;;5099731;28;20473;-71
2023/05/27 07:16:26;;;;;;;26.23;15.32;;;588.90;2432.00;;;;;;5094560;28;20487;-71
2023/05/27 07:18:52;;;;;;;20.90;14.40;;;588.90;2432.00;;;;;;5098438;28;20091;-70
2023/05/27 07:21:17;;;;;;;20.40;14.38;;;588.90;2432.00;;;;;;5102268;28;20031;-72
2023/05/27 07:23:43;;;;;;;22.38;13.48;;;589.00;2432.00;;;;;;5088605;28;20020;-71
2023/05/27 07:26:09;;;;;;;22.38;13.73;;;589.10;2432.00;;;;;;5097382;28;20035;-72
2023/05/27 07:28:36;;;;;;;24.02;13.85;;;589.30;2432.00;;;;;;5098074;28;20543;-73
2023/05/27 07:31:03;;;;;;;17.85;13.00;;;589.30;2432.00;;;;;;5088127;28;20024;-71
2023/05/27 07:33:28;;;;;;;22.70;14.55;;;589.30;2432.00;;;;;;5095928;28;20565;-72
2023/05/27 07:35:54;;;;;;;25.30;13.30;;;589.20;2432.00;;;;;;5099887;28;20106;-71
2023/05/27 07:38:20;;;;;;;17.88;13.98;;;589.20;2432.00;;;;;;5098036;28;20533;-70
2023/05/27 07:40:45;;;;;;;18.02;13.55;;;589.40;2432.00;;;;;;5097195;28;20050;-73
2023/05/27 07:43:11;;;;;;;17.25;11.63;;;589.40;2432.00;;;;;;5099885;28;20111;-72
2023/05/27 07:45:37;;;;;;;16.70;12.80;;;589.30;2432.00;;;;;;5098771;28;20028;-72
2023/05/27 07:48:02;;;;;;;21.17;13.52;;;589.50;2432.00;;;;;;5098043;28;20028;-71
2023/05/27 07:50:28;;;;;;;21.17;13.40;;;589.70;2432.00;;;;;;5103530;28;20389;-71
2023/05/27 07:52:54;;;;;;;18.98;11.82;;;589.70;2432.00;;;;;;5094648;28;20440;-71
2023/05/27 07:55:20;;;;;;;15.27;11.02;;;589.70;2432.00;;;;;;5097269;28;20058;-75
2023/05/27 07:57:46;;;;;;;15.40;10.43;;;589.70;2432.00;;;;;;5093682;28;20023;-72
2023/05/27 08:00:12;;;;;;;17.15;11.52;;;614.40;2432.00;;;;;;5106198;28;20111;-71
2023/05/27 08:02:38;;;;;;;15.13;11.25;;;614.40;2432.00;;;;;;5098764;28;20053;-73
2023/05/27 08:05:04;;;;;;;15.63;10.85;;;614.40;2432.00;;;;;;5103283;28;20063;-72
2023/05/27 08:07:30;;;;;;;18.70;12.25;;;614.40;2432.00;;;;;;5098984;28;20031;-71
2023/05/27 08:09:56;;;;;;;23.05;11.88;;;614.40;2432.00;;;;;;5085676;28;20074;-72
2023/05/27 08:12:22;;;;;;;17.00;12.63;;;614.60;2432.00;;;;;;5108178;28;20034;-70
2023/05/27 08:14:48;;;;;;;18.08;11.45;;;614.60;2432.00;;;;;;5101043;28;20023;-71
2023/05/27 08:17:14;;;;;;;18.40;12.90;;;614.70;2432.00;;;;;;5103064;28;20566;-71
2023/05/27 08:19:40;;;;;;;17.55;12.75;;;614.70;2432.00;;;;;;5098722;28;20028;-71
2023/05/27 08:22:08;;;;;;;19.48;13.40;;;614.70;2432.00;;;;;;5105536;28;20071;-70
2023/05/27 08:24:34;;;;;;;17.55;12.77;;;614.80;2432.00;;;;;;5102929;28;20027;-71
2023/05/27 08:27:02;;;;;;;21.20;13.35;;;614.80;2432.00;;;;;;5100735;28;20512;-70
2023/05/27 08:29:30;;;;;;;17.55;12.90;;;614.80;2432.00;;;;;;5100027;28;20423;-69
2023/05/27 08:31:56;;;;;;;16.35;12.00;;;614.80;2432.00;;;;;;5099585;28;20742;-71
2023/05/27 08:34:23;;;;;;;15.95;12.43;;;614.80;2432.00;;;;;;5103886;28;20061;-71
2023/05/27 08:36:49;;;;;;;17.83;12.02;;;614.80;2432.00;;;;;;5086620;28;20023;-72
2023/05/27 08:39:14;;;;;;;16.25;11.93;;;614.80;2432.00;;;;;;5103961;28;20076;-73
2023/05/27 08:41:41;;;;;;;17.70;11.98;;;614.90;2432.00;;;;;;5100203;28;20121;-69
2023/05/27 08:44:06;;;;;;;15.98;12.73;;;615.00;2432.00;;;;;;5104070;28;20036;-70
2023/05/27 08:46:33;;;;;;;15.25;12.40;;;615.10;2432.00;;;;;;5102893;28;20031;-69
2023/05/27 08:48:59;;;;;;;16.20;13.48;;;615.10;2432.00;;;;;;5107587;28;20103;-70
2023/05/27 08:51:26;;;;;;;19.23;11.88;;;615.00;2432.00;;;;;;5103570;28;20153;-70
2023/05/27 08:53:52;;;;;;;18.95;13.73;;;615.20;2432.00;;;;;;5100685;28;20529;-70
2023/05/27 08:56:21;;;;;;;20.83;12.95;;;615.30;2432.00;;;;;;5108727;28;20153;-70
2023/05/27 08:58:47;;;;;;;19.83;13.15;;;615.30;2432.00;;;;;;5106995;28;20159;-71
2023/05/27 09:01:17;;;;;;;21.33;14.30;;;615.20;2432.00;;;;;;5100312;28;20031;-71
2023/05/27 09:03:44;;;;;;;19.85;14.05;;;615.30;2432.00;;;;;;5091133;28;20101;-71
2023/05/27 09:06:09;;;;;;;16.15;13.10;;;615.20;2432.00;;;;;;5099768;28;20022;-72
2023/05/27 09:08:35;;;;;;;19.00;13.73;;;615.30;2432.00;;;;;;5109875;28;20366;-71
2023/05/27 09:11:01;;;;;;;20.27;14.18;;;615.30;2432.00;;;;;;5098361;28;20489;-70
2023/05/27 09:13:30;;;;;;;19.92;12.48;;;640.00;2432.00;;;;;;5095582;28;20044;-71
2023/05/27 09:16:08;;;;;;;22.45;13.88;;;640.10;2432.00;;;;;;5100433;28;20028;-72
2023/05/27 09:18:35;;;;;;;20.15;13.95;;;640.20;2432.00;;;;;;5095095;28;20028;-70
2023/05/27 09:21:02;;;;;;;20.98;14.30;;;640.20;2432.00;;;;;;5096743;28;20024;-71
2023/05/27 09:23:27;;;;;;;19.02;12.85;;;640.20;2432.00;;;;;;5101407;28;20020;-73
2023/05/27 09:25:53;;;;;;;17.98;12.80;;;640.20;2432.00;;;;;;5107213;28;20133;-73
2023/05/27 09:28:23;;;;;;;20.48;13.48;;;615.30;2432.00;;;;;;5093961;28;20023;-69
2023/05/27 09:31:04;;;;;;;15.80;11.10;;;615.30;2432.00;;;;;;5103042;28;20034;-71
2023/05/27 09:33:35;;;;;;;14.75;10.05;;;640.00;2432.00;;;;;;5100698;28;20032;-70
2023/05/27 09:36:05;;;;;;;14.18;10.55;;;640.10;2432.00;;;;;;5096478;28;20023;-70
2023/05/27 09:38:32;;;;;;;16.45;11.38;;;640.30;2432.00;;;;;;5105038;28;20024;-74
2023/05/27 09:40:58;;;;;;;14.45;10.35;;;640.60;2432.00;;;;;;5102868;28;20054;-70
2023/05/27 09:43:26;;;;;;;18.42;10.25;;;640.60;2432.00;;;;;;5096134;28;20137;-73
2023/05/27 09:45:54;;;;;;;21.95;10.27;;;640.80;2432.00;;;;;;5095857;28;20038;-70
2023/05/27 09:48:21;;;;;;;18.17;11.85;;;665.70;2432.00;;;;;;5099760;28;20062;-70
2023/05/27 09:50:50;;;;;;;15.88;10.15;;;665.90;2432.00;;;;;;5098474;28;20059;-70
2023/05/27 09:53:18;;;;;;;21.63;11.60;;;665.70;2432.00;;;;;;5101191;28;20036;-71
2023/05/27 09:55:45;;;;;;;17.42;11.02;;;666.20;2432.00;;;;;;5081591;28;20074;-70
2023/05/27 09:58:11;;;;;;;13.55;10.38;;;666.30;2432.00;;;;;;5095244;28;20028;-71
2023/05/27 10:00:40;;;;;;;13.50;10.55;;;;;;;;;;5098445;28;20055;-70
2023/05/27 10:03:07;;;;;;;15.35;11.48;;;691.40;2329.60;;;;;;5104619;28;20062;-71
2023/05/27 10:05:34;;;;;;;19.50;12.57;;;691.60;2406.40;;;;;;5097567;28;20032;-70
2023/05/27 10:07:59;;;;;;;15.65;10.68;;;691.70;2355.20;;;;;;5102464;28;20036;-70
2023/05/27 10:10:25;;;;;;;11.90;10.20;;;691.80;2304.00;;;;;;5086875;28;20106;-70
2023/05/27 10:12:53;;;;;;;13.88;10.77;;;691.90;2099.20;;;;;;5101098;28;20473;-70
2023/05/27 10:15:28;;;;;;;14.90;10.75;;;691.90;2201.60;;;;;;5095756;28;20107;-71
2023/05/27 10:18:10;;;;;;;17.23;11.25;;;691.60;2150.40;;;;;;5090842;28;20028;-72
2023/05/27 10:20:41;;;;;;;15.50;11.23;;;691.30;2227.20;;;;;;5090289;28;20024;-71
2023/05/27 10:23:15;;;;;;;16.77;10.75;;;691.30;2304.00;;;;;;5098288;28;20512;-70
2023/05/27 10:25:50;;;;;;;14.43;11.02;;;691.40;2278.40;;;;;;5098767;28;20024;-70
2023/05/27 10:28:27;;;;;;;18.38;11.43;;;691.60;2227.20;;;;;;5100547;28;20032;-71
2023/05/27 10:30:53;;;;;;;14.68;11.00;;;691.80;2099.20;;;;;;5100862;28;20028;-72
2023/05/27 10:33:34;;;;;;;18.58;11.60;;;692.10;2048.00;;;;;;5098803;28;20390;-71
2023/05/27 10:36:09;;;;;;;14.88;12.18;;;692.10;2124.80;;;;;;5096147;28;20062;-70
2023/05/27 10:38:35;;;;;;;19.50;12.48;;;692.10;2252.80;;;;;;5074223;28;20028;-71
2023/05/27 10:41:03;;;;;;;16.48;11.88;;;692.10;2201.60;;;;;;5075238;28;20024;-74
2023/05/27 10:43:29;;;;;;;15.85;12.25;;;716.80;2124.80;;;;;;5101004;28;20028;-71
2023/05/27 10:46:03;;;;;;;20.85;11.75;;;716.90;1996.80;;;;;;5102519;28;20116;-72
2023/05/27 10:48:28;;;;;;;16.92;12.40;;;717.10;2048.00;;;;;;5099741;28;20485;-71
2023/05/27 10:50:57;;;;;;;19.38;11.80;;;717.10;2073.60;;;;;;5103486;28;20038;-76
2023/05/27 10:53:26;;;;;;;13.27;10.00;;;717.30;2073.60;;;;;;5100870;28;20058;-78
2023/05/27 10:55:51;;;;;;;14.85;10.60;;;717.50;1971.20;;;;;;5102061;28;20059;-76
2023/05/27 10:58:18;;;;;;;12.90;10.43;;;742.40;1945.60;;;;;;5107333;28;20024;-73
2023/05/27 11:00:51;;;;;;;16.58;10.48;;;742.40;1894.40;;;;;;5094783;28;20031;-73
2023/05/27 11:03:23;;;;;;;13.45;9.95;;;742.50;1868.80;;;;;;5108264;28;20022;-73
2023/05/27 11:06:05;;;;;;;14.32;10.60;;;742.50;1920.00;;;;;;5101810;28;20478;-72
2023/05/27 11:08:32;;;;;;;17.58;10.77;;;742.60;1868.80;;;;;;5100888;28;20028;-74
2023/05/27 11:11:02;;;;;;;14.85;9.65;;;742.70;1843.20;;;;;;5096951;28;20111;-73
2023/05/27 11:13:36;;;;;;;15.05;10.82;;;742.60;1920.00;;;;;;5103444;28;20115;-76
2023/05/27 11:16:04;;;;;;;12.95;10.55;;;717.70;1868.80;;;;;;5095087;28;20051;-72
2023/05/27 11:18:46;;;;;;;14.85;10.48;;;742.50;1894.40;;;;;;5097279;28;20022;-72
2023/05/27 11:21:15;;;;;;;15.23;11.55;;;717.50;1843.20;;;;;;5096908;28;20058;-73
2023/05/27 11:23:44;;;;;;;13.85;11.40;;;717.60;1894.40;;;;;;5102872;28;20115;-77
2023/05/27 11:26:17;;;;;;;18.83;11.13;;;742.50;1843.20;;;;;;5096164;28;20389;-72
2023/05/27 11:28:50;;;;;;;15.18;10.88;;;742.50;1843.20;;;;;;5098445;28;20021;-72
2023/05/27 11:31:17;;;;;;;16.23;10.88;;;717.50;1945.60;;;;;;5093503;28;20381;-72
2023/05/27 11:33:48;;;;;;;14.18;10.63;;;717.60;1920.00;;;;;;5096616;28;20040;-72
2023/05/27 11:36:15;;;;;;;18.88;10.80;;;717.40;1920.00;;;;;;5106171;28;20035;-73
2023/05/27 11:38:47;;;;;;;14.75;10.82;;;742.40;1868.80;;;;;;5098752;28;20032;-72
2023/05/27 11:41:12;;;;;;;16.58;10.35;;;717.30;1945.60;;;;;;5104323;28;20373;-73
2023/05/27 11:43:50;;;;;;;13.00;10.35;;;717.50;1996.80;;;;;;5103575;28;20028;-71
2023/05/27 11:46:16;;;;;;;13.90;11.05;;;717.30;2048.00;;;;;;5094062;28;20029;-71
2023/05/27 11:48:43;;;;;;;14.65;10.70;;;716.90;2073.60;;;;;;5102003;28;20501;-72
2023/05/27 11:51:10;;;;;;;15.93;10.20;;;716.80;2176.00;;;;;;5104979;28;20028;-71
2023/05/27 11:53:44;;;;;;;16.10;10.45;;;692.10;2278.40;;;;;;5080357;28;20137;-71
2023/05/27 11:56:10;;;;;;;14.75;9.38;;;716.80;2252.80;;;;;;5097804;28;20101;-70
2023/05/27 11:58:36;;;;;;;13.32;9.70;;;717.20;2099.20;;;;;;5101391;28;20063;-71
2023/05/27 12:01:03;;;;;;;12.27;9.63;;;717.30;2022.40;;;;;;5072759;28;20556;-71
2023/05/27 12:03:29;;;;;;;11.45;9.25;;;717.30;2022.40;;;;;;5100322;28;20028;-71
2023/05/27 12:05:55;;;;;;;20.48;9.68;;;717.30;1868.80;;;;;;5101153;28;20024;-70